createdAt,value
2018-09-12T00:01:19.299Z,88.79
2018-09-12T00:03:47.803Z,88.72
2018-09-12T00:06:16.295Z,89.16
2018-09-12T00:08:44.797Z,88.62
2018-09-12T00:11:13.305Z,89.17
2018-09-12T00:13:41.849Z,88.42
2018-09-12T00:16:10.343Z,88.97
2018-09-12T00:18:38.912Z,88.52
2018-09-12T00:21:07.598Z,88.70
2018-09-12T00:23:36.634Z,88.43
2018-09-12T00:26:05.196Z,88.43
2018-09-12T00:28:33.707Z,88.49
2018-09-12T00:31:02.242Z,88.80
2018-09-12T00:33:30.776Z,88.49
2018-09-12T00:35:59.282Z,88.58
2018-09-12T00:38:27.822Z,88.19
2018-09-12T00:40:56.349Z,87.96
2018-09-12T00:43:24.951Z,87.97
2018-09-12T00:45:53.454Z,88.36
2018-09-12T00:48:22.015Z,88.13
2018-09-12T00:50:50.544Z,88.35
2018-09-12T00:53:19.077Z,88.19
2018-09-12T00:55:47.605Z,88.05
2018-09-12T00:58:16.100Z,88.02
2018-09-12T01:00:44.607Z,88.28
2018-09-12T01:03:13.162Z,88.44
2018-09-12T01:05:42.729Z,87.88
2018-09-12T01:08:12.602Z,88.37
2018-09-12T01:10:41.144Z,87.91
2018-09-12T01:13:10.007Z,88.10
2018-09-12T01:15:38.553Z,87.82
2018-09-12T01:18:07.156Z,88.23
2018-09-12T01:20:35.662Z,87.94
2018-09-12T01:23:04.146Z,88.38
2018-09-12T01:25:32.636Z,87.92
2018-09-12T01:28:01.190Z,88.20
2018-09-12T01:30:29.735Z,87.92
2018-09-12T01:32:58.247Z,87.79
2018-09-12T01:35:26.751Z,87.92
2018-09-12T01:37:55.279Z,88.35
2018-09-12T01:40:23.774Z,87.75
2018-09-12T01:42:52.300Z,87.66
2018-09-12T01:45:20.909Z,88.31
2018-09-12T01:47:49.798Z,87.75
2018-09-12T01:50:18.326Z,87.70
2018-09-12T01:52:47.499Z,88.15
2018-09-12T01:55:16.095Z,87.93
2018-09-12T01:57:44.759Z,88.08
2018-09-12T02:00:18.451Z,87.71
2018-09-12T02:02:47.979Z,88.16
2018-09-12T02:05:16.491Z,87.83
2018-09-12T02:07:45.006Z,87.54
2018-09-12T02:10:13.754Z,88.19
2018-09-12T02:12:42.303Z,87.81
2018-09-12T02:15:10.825Z,87.71
2018-09-12T02:17:39.392Z,87.81
2018-09-12T02:20:07.964Z,87.82
2018-09-12T02:22:36.491Z,87.80
2018-09-12T02:25:05.083Z,87.93
2018-09-12T02:27:33.683Z,88.29
2018-09-12T02:30:02.221Z,87.83
2018-09-12T02:32:30.789Z,87.90
2018-09-12T02:34:59.307Z,87.86
2018-09-12T02:37:27.833Z,87.93
2018-09-12T02:39:56.356Z,87.93
2018-09-12T02:42:24.895Z,87.73
2018-09-12T02:44:53.441Z,87.76
2018-09-12T02:47:27.166Z,88.06
2018-09-12T02:49:55.657Z,87.80
2018-09-12T02:52:24.169Z,88.21
2018-09-12T02:54:52.699Z,88.04
2018-09-12T02:57:21.220Z,87.78
2018-09-12T02:59:49.745Z,87.71
2018-09-12T03:02:18.329Z,88.08
2018-09-12T03:04:52.327Z,88.68
2018-09-12T03:07:20.867Z,88.86
2018-09-12T03:09:49.468Z,88.70
2018-09-12T03:12:17.991Z,88.80
2018-09-12T03:14:46.540Z,88.33
2018-09-12T03:17:15.387Z,88.54
2018-09-12T03:19:43.940Z,88.57
2018-09-12T03:22:12.475Z,88.31
2018-09-12T03:24:41.075Z,88.20
2018-09-12T03:27:09.739Z,88.67
2018-09-12T03:29:38.311Z,88.31
2018-09-12T03:32:07.150Z,88.63
2018-09-12T03:34:36.044Z,88.19
2018-09-12T03:37:04.756Z,88.27
2018-09-12T03:39:33.478Z,88.31
2018-09-12T03:42:02.166Z,88.24
2018-09-12T03:44:30.783Z,88.62
2018-09-12T03:46:59.386Z,88.91
2018-09-12T03:49:28.233Z,88.45
2018-09-12T03:51:56.967Z,88.33
2018-09-12T03:54:25.635Z,88.42
2018-09-12T03:56:54.289Z,88.77
2018-09-12T03:59:22.957Z,88.26
2018-09-12T04:01:51.799Z,88.26
2018-09-12T04:04:20.307Z,88.45
2018-09-12T04:06:48.887Z,88.75
2018-09-12T04:09:17.424Z,88.29
2018-09-12T04:11:46.073Z,88.43
2018-09-12T04:14:14.636Z,88.47
2018-09-12T04:16:43.219Z,88.90
2018-09-12T04:19:11.796Z,88.28
2018-09-12T04:21:40.362Z,88.45
2018-09-12T04:24:08.994Z,88.28
2018-09-12T04:26:37.598Z,88.59
2018-09-12T04:29:06.232Z,88.69
2018-09-12T04:31:34.842Z,88.01
2018-09-12T04:34:03.399Z,88.36
2018-09-12T04:36:32.409Z,87.87
2018-09-12T04:39:00.980Z,88.26
2018-09-12T04:41:29.589Z,88.67
2018-09-12T04:43:58.234Z,88.28
2018-09-12T04:46:26.764Z,88.49
2018-09-12T04:48:56.028Z,88.36
2018-09-12T04:51:24.736Z,88.79
2018-09-12T04:53:53.279Z,88.20
2018-09-12T04:56:21.915Z,88.55
2018-09-12T04:58:50.448Z,88.59
2018-09-12T05:01:18.954Z,88.41
2018-09-12T05:03:47.583Z,88.58
2018-09-12T05:06:16.902Z,88.97
2018-09-12T05:08:45.519Z,88.72
2018-09-12T05:11:14.068Z,88.40
2018-09-12T05:13:43.655Z,87.25
2018-09-12T05:16:12.304Z,86.82
2018-09-12T05:18:40.882Z,86.90
2018-09-12T05:21:09.551Z,86.42
2018-09-12T05:23:38.047Z,85.76
2018-09-12T05:26:06.707Z,84.30
2018-09-12T05:28:35.378Z,84.09
2018-09-12T05:31:03.914Z,83.81
2018-09-12T05:33:32.468Z,83.72
2018-09-12T05:36:01.024Z,84.04
2018-09-12T05:38:29.522Z,84.32
2018-09-12T05:40:59.025Z,83.49
2018-09-12T05:43:27.546Z,83.00
2018-09-12T05:45:56.112Z,82.30
2018-09-12T05:48:24.727Z,80.81
2018-09-12T05:50:53.347Z,80.31
2018-09-12T05:53:21.903Z,79.93
2018-09-12T05:55:50.408Z,80.08
2018-09-12T05:58:18.986Z,79.62
2018-09-12T06:00:47.515Z,78.35
2018-09-12T06:03:16.058Z,78.17
2018-09-12T06:05:44.587Z,75.89
2018-09-12T06:08:13.243Z,75.82
2018-09-12T06:10:41.852Z,74.66
2018-09-12T06:13:10.398Z,74.17
2018-09-12T06:15:39.047Z,73.11
2018-09-12T06:18:07.620Z,73.21
2018-09-12T06:20:36.232Z,72.81
2018-09-12T06:23:04.884Z,73.32
2018-09-12T06:25:33.471Z,73.27
2018-09-12T06:28:02.055Z,72.64
2018-09-12T06:30:30.611Z,73.17
2018-09-12T06:32:59.246Z,73.19
2018-09-12T06:35:27.789Z,72.87
2018-09-12T06:37:57.250Z,72.44
2018-09-12T06:40:27.948Z,73.52
2018-09-12T06:42:56.623Z,73.87
2018-09-12T06:45:25.142Z,73.68
2018-09-12T06:47:53.771Z,73.73
2018-09-12T06:50:22.264Z,74.83
2018-09-12T06:52:50.894Z,74.60
2018-09-12T06:55:19.456Z,75.16
2018-09-12T06:57:48.060Z,76.13
2018-09-12T07:00:16.658Z,76.76
2018-09-12T07:02:45.220Z,77.00
2018-09-12T07:05:14.439Z,77.02
2018-09-12T07:07:43.140Z,78.11
2018-09-12T07:10:11.778Z,77.76
2018-09-12T07:12:40.513Z,78.58
2018-09-12T07:15:10.163Z,78.37
2018-09-12T07:17:38.764Z,79.30
2018-09-12T07:20:07.493Z,79.28
2018-09-12T07:22:36.049Z,79.95
2018-09-12T07:25:04.678Z,79.21
2018-09-12T07:27:33.350Z,79.78
2018-09-12T07:30:01.993Z,80.27
2018-09-12T07:32:30.678Z,79.40
2018-09-12T07:35:00.180Z,80.22
2018-09-12T07:37:28.797Z,79.73
2018-09-12T07:39:58.286Z,80.49
2018-09-12T07:42:26.815Z,80.36
2018-09-12T07:45:01.904Z,80.43
2018-09-12T07:47:30.505Z,80.92
2018-09-12T07:49:59.064Z,80.57
2018-09-12T07:52:28.235Z,80.89
2018-09-12T07:54:57.875Z,81.33
2018-09-12T07:57:26.493Z,81.61
2018-09-12T07:59:56.058Z,81.30
2018-09-12T08:02:24.682Z,81.46
2018-09-12T08:04:54.295Z,81.53
2018-09-12T08:07:23.755Z,81.65
2018-09-12T08:09:52.364Z,81.42
2018-09-12T08:12:21.840Z,81.54
2018-09-12T08:14:50.286Z,81.74
2018-09-12T08:17:18.836Z,81.46
2018-09-12T08:19:47.344Z,81.70
2018-09-12T08:22:15.848Z,81.95
2018-09-12T08:24:44.315Z,81.35
2018-09-12T08:27:12.829Z,81.79
2018-09-12T08:29:41.324Z,82.13
2018-09-12T08:32:09.793Z,81.65
2018-09-12T08:34:38.280Z,82.13
2018-09-12T08:37:06.776Z,82.26
2018-09-12T08:39:35.286Z,81.59
2018-09-12T08:42:03.764Z,82.08
2018-09-12T08:44:32.283Z,82.61
2018-09-12T08:47:00.806Z,82.72
2018-09-12T08:49:29.388Z,82.89
2018-09-12T08:51:57.863Z,82.46
2018-09-12T08:54:26.342Z,83.03
2018-09-12T08:56:55.033Z,83.16
2018-09-12T08:59:23.393Z,83.04
2018-09-12T09:01:52.091Z,83.24
2018-09-12T09:04:20.575Z,83.47
2018-09-12T09:06:49.033Z,83.30
2018-09-12T09:09:17.540Z,82.95
2018-09-12T09:11:46.018Z,83.54
2018-09-12T09:14:14.551Z,83.63
2018-09-12T09:16:43.044Z,83.12
2018-09-12T09:19:11.525Z,83.11
2018-09-12T09:21:40.013Z,83.22
2018-09-12T09:24:08.568Z,83.77
2018-09-12T09:26:37.040Z,83.25
2018-09-12T09:29:05.529Z,83.69
2018-09-12T09:31:33.997Z,83.24
2018-09-12T09:34:02.480Z,83.72
2018-09-12T09:36:30.988Z,83.46
2018-09-12T09:38:59.489Z,83.63
2018-09-12T09:41:27.974Z,83.24
2018-09-12T09:43:56.614Z,83.73
2018-09-12T09:46:25.080Z,83.36
2018-09-12T09:48:53.542Z,83.52
2018-09-12T09:51:22.020Z,84.06
2018-09-12T09:53:50.555Z,83.44
2018-09-12T09:56:19.058Z,83.47
2018-09-12T09:58:47.534Z,83.70
2018-09-12T10:01:21.377Z,84.11
2018-09-12T10:04:56.752Z,83.76
2018-09-12T10:07:30.327Z,83.68
2018-09-12T10:10:03.668Z,83.08
2018-09-12T10:12:32.504Z,83.05
2018-09-12T10:15:01.714Z,83.83
2018-09-12T10:17:30.180Z,83.19
2018-09-12T10:19:58.961Z,83.78
2018-09-12T10:22:27.472Z,83.84
2018-09-12T10:24:55.976Z,83.69
2018-09-12T10:27:24.556Z,84.09
2018-09-12T10:29:53.067Z,83.85
2018-09-12T10:32:21.571Z,83.70
2018-09-12T10:34:50.051Z,83.42
2018-09-12T10:37:18.992Z,83.35
2018-09-12T10:39:47.472Z,83.52
2018-09-12T10:42:15.974Z,83.99
2018-09-12T10:44:44.469Z,84.04
2018-09-12T10:47:19.267Z,83.60
2018-09-12T10:49:47.740Z,84.34
2018-09-12T10:52:16.215Z,84.17
2018-09-12T10:54:44.689Z,83.82
2018-09-12T10:57:13.211Z,84.30
2018-09-12T10:59:41.700Z,84.12
2018-09-12T11:02:10.200Z,83.57
2018-09-12T11:04:38.682Z,84.28
2018-09-12T11:07:07.185Z,83.91
2018-09-12T11:09:35.680Z,83.78
2018-09-12T11:12:04.215Z,83.74
2018-09-12T11:14:32.782Z,83.84
2018-09-12T11:17:01.329Z,83.69
2018-09-12T11:19:29.818Z,84.30
2018-09-12T11:21:58.638Z,83.93
2018-09-12T11:24:27.133Z,84.09
2018-09-12T11:26:55.606Z,84.10
2018-09-12T11:29:24.091Z,84.07
2018-09-12T11:31:52.579Z,83.87
2018-09-12T11:34:21.159Z,84.00
2018-09-12T11:36:49.576Z,84.03
2018-09-12T11:39:18.096Z,84.02
2018-09-12T11:41:46.593Z,84.22
2018-09-12T11:44:15.079Z,84.09
2018-09-12T11:46:43.563Z,84.53
2018-09-12T11:49:12.114Z,84.12
2018-09-12T11:51:41.377Z,84.10
2018-09-12T11:54:09.907Z,83.96
2018-09-12T11:56:38.385Z,84.66
2018-09-12T11:59:06.860Z,84.76
2018-09-12T12:01:35.344Z,84.64
2018-09-12T12:04:03.872Z,84.29
2018-09-12T12:06:32.361Z,84.26
2018-09-12T12:09:00.849Z,84.79
2018-09-12T12:11:29.360Z,84.41
2018-09-12T12:13:57.850Z,84.76
2018-09-12T12:16:26.359Z,84.50
2018-09-12T12:18:54.862Z,84.38
2018-09-12T12:21:23.347Z,84.32
2018-09-12T12:23:51.826Z,84.20
2018-09-12T12:26:20.326Z,84.69
2018-09-12T12:28:48.818Z,84.81
2018-09-12T12:31:17.324Z,84.61
2018-09-12T12:33:46.028Z,84.70
2018-09-12T12:36:14.647Z,84.63
2018-09-12T12:38:43.128Z,84.62
2018-09-12T12:41:11.760Z,84.85
2018-09-12T12:43:40.224Z,84.78
2018-09-12T12:46:08.831Z,84.87
2018-09-12T12:48:37.373Z,84.54
2018-09-12T12:51:06.186Z,84.52
2018-09-12T12:53:34.713Z,84.46
2018-09-12T12:56:03.299Z,84.41
2018-09-12T12:58:31.863Z,84.43
2018-09-12T13:01:00.368Z,84.50
2018-09-12T13:03:28.866Z,84.56
2018-09-12T13:05:57.422Z,84.93
2018-09-12T13:08:25.960Z,84.91
2018-09-12T13:10:54.548Z,84.48
2018-09-12T13:13:23.123Z,84.32
2018-09-12T13:15:51.712Z,84.78
2018-09-12T13:18:20.303Z,84.48
2018-09-12T13:20:48.890Z,84.83
2018-09-12T13:23:17.467Z,84.59
2018-09-12T13:25:46.062Z,84.44
2018-09-12T13:28:14.650Z,84.51
2018-09-12T13:30:43.252Z,84.79
2018-09-12T13:33:11.884Z,84.26
2018-09-12T13:35:40.457Z,84.77
2018-09-12T13:38:09.068Z,84.19
2018-09-12T13:40:37.676Z,84.26
2018-09-12T13:43:06.317Z,84.02
2018-09-12T13:45:34.910Z,84.61
2018-09-12T13:48:03.490Z,84.29
2018-09-12T13:50:32.113Z,84.77
2018-09-12T13:53:00.666Z,84.32
2018-09-12T13:55:29.198Z,84.44
2018-09-12T13:57:57.854Z,84.88
2018-09-12T14:00:30.223Z,84.21
2018-09-12T14:02:59.750Z,84.74
2018-09-12T14:05:28.369Z,84.18
2018-09-12T14:07:56.987Z,84.18
2018-09-12T14:10:25.595Z,84.39
2018-09-12T14:12:54.188Z,84.75
2018-09-12T14:15:22.776Z,84.26
2018-09-12T14:17:51.668Z,84.22
2018-09-12T14:20:20.324Z,84.30
2018-09-12T14:22:49.043Z,84.21
2018-09-12T14:25:17.738Z,83.96
2018-09-12T14:27:46.257Z,84.55
2018-09-12T14:30:14.745Z,84.06
2018-09-12T14:32:43.236Z,83.72
2018-09-12T14:35:11.736Z,84.46
2018-09-12T14:37:40.216Z,83.69
2018-09-12T14:40:09.046Z,83.83
2018-09-12T14:42:37.539Z,83.84
2018-09-12T14:45:06.375Z,83.60
2018-09-12T14:47:34.855Z,83.74
2018-09-12T14:50:03.348Z,83.52
2018-09-12T14:52:31.828Z,84.14
2018-09-12T14:55:00.403Z,83.91
2018-09-12T14:57:28.898Z,83.86
2018-09-12T14:59:57.362Z,83.71
2018-09-12T15:02:25.831Z,83.37
2018-09-12T15:04:54.344Z,83.51
2018-09-12T15:07:22.825Z,83.86
2018-09-12T15:09:51.342Z,83.55
2018-09-12T15:12:19.826Z,83.87
2018-09-12T15:14:48.460Z,83.99
2018-09-12T15:17:17.067Z,84.68
2018-09-12T15:19:45.795Z,85.35
2018-09-12T15:22:14.365Z,86.43
2018-09-12T15:24:43.006Z,86.04
2018-09-12T15:27:11.621Z,85.88
2018-09-12T15:29:40.897Z,85.03
2018-09-12T15:32:09.433Z,85.22
2018-09-12T15:34:38.348Z,85.04
2018-09-12T15:37:07.004Z,84.64
2018-09-12T15:39:35.869Z,84.98
2018-09-12T15:42:04.412Z,85.08
2018-09-12T15:44:33.200Z,85.41
2018-09-12T15:47:01.964Z,84.96
2018-09-12T15:49:30.629Z,85.39
2018-09-12T15:51:59.308Z,85.69
2018-09-12T15:54:28.049Z,85.52
2018-09-12T15:56:56.706Z,85.78
2018-09-12T15:59:25.388Z,85.04
2018-09-12T16:01:54.075Z,85.54
2018-09-12T16:04:22.773Z,85.02
2018-09-12T16:06:51.423Z,85.20
2018-09-12T16:09:20.122Z,85.11
2018-09-12T16:11:48.821Z,85.28
2018-09-12T16:14:17.414Z,85.23
2018-09-12T16:16:46.058Z,85.30
2018-09-12T16:19:14.664Z,85.11
2018-09-12T16:21:43.379Z,84.89
2018-09-12T16:24:11.998Z,84.97
2018-09-12T16:26:40.693Z,84.74
2018-09-12T16:29:09.191Z,85.30
2018-09-12T16:31:37.735Z,85.16
2018-09-12T16:34:06.330Z,85.46
2018-09-12T16:36:34.870Z,85.45
2018-09-12T16:39:03.500Z,85.46
2018-09-12T16:41:32.013Z,84.83
2018-09-12T16:44:01.514Z,85.25
2018-09-12T16:46:30.119Z,84.66
2018-09-12T16:48:58.731Z,84.87
2018-09-12T16:51:27.490Z,85.27
2018-09-12T16:53:56.146Z,85.23
2018-09-12T16:56:24.804Z,84.91
2018-09-12T16:58:53.714Z,85.51
2018-09-12T17:01:22.388Z,84.79
2018-09-12T17:03:50.961Z,85.16
2018-09-12T17:06:19.735Z,84.96
2018-09-12T17:08:48.283Z,85.68
2018-09-12T17:11:16.814Z,85.34
2018-09-12T17:13:45.505Z,85.72
2018-09-12T17:16:14.136Z,85.69
2018-09-12T17:18:42.869Z,85.22
2018-09-12T17:21:11.461Z,85.27
2018-09-12T17:23:40.069Z,85.77
2018-09-12T17:26:08.864Z,85.67
2018-09-12T17:28:37.473Z,85.88
2018-09-12T17:31:06.107Z,85.33
2018-09-12T17:33:34.723Z,85.14
2018-09-12T17:36:03.982Z,85.95
2018-09-12T17:38:32.686Z,85.52
2018-09-12T17:41:01.187Z,85.62
2018-09-12T17:43:29.672Z,85.54
2018-09-12T17:45:58.163Z,85.30
2018-09-12T17:48:26.643Z,85.61
2018-09-12T17:50:55.121Z,85.74
2018-09-12T17:53:38.028Z,85.81
2018-09-12T17:56:06.594Z,85.47
2018-09-12T17:58:35.132Z,85.75
2018-09-12T18:01:03.662Z,85.49
2018-09-12T18:03:32.143Z,85.99
2018-09-12T18:06:00.809Z,85.85
2018-09-12T18:08:29.329Z,86.12
2018-09-12T18:10:57.871Z,85.58
2018-09-12T18:13:26.370Z,85.72
2018-09-12T18:15:54.883Z,85.80
2018-09-12T18:18:23.428Z,85.54
2018-09-12T18:20:51.946Z,86.47
2018-09-12T18:23:20.451Z,86.12
2018-09-12T18:25:48.975Z,86.24
2018-09-12T18:28:17.475Z,85.63
2018-09-12T18:30:46.025Z,85.59
2018-09-12T18:33:14.540Z,85.77
2018-09-12T18:35:43.112Z,86.46
2018-09-12T18:38:11.594Z,86.04
2018-09-12T18:40:40.079Z,86.42
2018-09-12T18:43:08.694Z,86.69
2018-09-12T18:45:37.094Z,87.47
2018-09-12T18:48:06.042Z,86.83
2018-09-12T18:50:34.736Z,88.49
2018-09-12T18:53:03.324Z,89.82
2018-09-12T18:55:31.974Z,88.92
2018-09-12T18:58:00.638Z,90.59
2018-09-12T19:00:29.355Z,89.75
2018-09-12T19:02:58.369Z,90.19
2018-09-12T19:05:27.063Z,92.82
2018-09-12T19:07:55.684Z,93.00
2018-09-12T19:10:24.292Z,92.50
2018-09-12T19:12:52.952Z,92.77
2018-09-12T19:15:21.618Z,95.58
2018-09-12T19:17:50.255Z,94.40
2018-09-12T19:20:18.949Z,96.32
2018-09-12T19:22:47.604Z,95.84
2018-09-12T19:25:16.292Z,96.81
2018-09-12T19:27:44.915Z,97.12
2018-09-12T19:30:13.566Z,97.87
2018-09-12T19:32:42.235Z,100.00
2018-09-12T19:35:10.803Z,100.00
2018-09-12T19:37:39.559Z,100.00
2018-09-12T19:40:08.184Z,100.00
2018-09-12T19:42:36.739Z,100.00
2018-09-12T19:45:05.447Z,100.00
2018-09-12T19:47:34.102Z,100.00
2018-09-12T19:50:02.733Z,100.00
2018-09-12T19:52:31.300Z,100.00
2018-09-12T19:54:59.978Z,100.00
2018-09-12T19:57:28.719Z,100.00
2018-09-12T19:59:58.325Z,100.00
2018-09-12T20:02:31.873Z,100.00
2018-09-12T20:05:01.061Z,100.00
2018-09-12T20:07:31.760Z,100.00
2018-09-12T20:10:00.327Z,100.00
2018-09-12T20:12:28.981Z,100.00
2018-09-12T20:14:57.582Z,100.00
2018-09-12T20:17:26.266Z,100.00
2018-09-12T20:19:56.150Z,100.00
2018-09-12T20:22:26.410Z,100.00
2018-09-12T20:24:55.093Z,100.00
2018-09-12T20:27:23.790Z,99.40
2018-09-12T20:29:52.416Z,98.86
2018-09-12T20:32:21.051Z,99.13
2018-09-12T20:34:49.679Z,98.57
2018-09-12T20:37:18.320Z,97.88
2018-09-12T20:39:46.945Z,98.16
2018-09-12T20:42:15.554Z,97.36
2018-09-12T20:44:44.233Z,98.00
2018-09-12T20:47:13.104Z,97.97
2018-09-12T20:49:41.736Z,97.47
2018-09-12T20:52:10.304Z,97.43
2018-09-12T20:54:38.811Z,96.83
2018-09-12T20:57:07.486Z,97.33
2018-09-12T20:59:36.083Z,96.67
2018-09-12T21:02:04.638Z,95.99
2018-09-12T21:04:33.201Z,95.92
2018-09-12T21:07:01.952Z,95.68
2018-09-12T21:09:30.487Z,95.36
2018-09-12T21:11:59.066Z,95.47
2018-09-12T21:14:27.636Z,95.13
2018-09-12T21:16:56.172Z,95.21
2018-09-12T21:19:24.862Z,95.02
2018-09-12T21:21:53.416Z,94.89
2018-09-12T21:24:22.011Z,94.87
2018-09-12T21:26:50.650Z,94.84
2018-09-12T21:29:19.178Z,94.92
2018-09-12T21:31:47.763Z,94.48
2018-09-12T21:34:16.358Z,94.22
2018-09-12T21:36:45.018Z,94.46
2018-09-12T21:39:13.609Z,94.64
2018-09-12T21:41:42.182Z,94.19
2018-09-12T21:44:10.747Z,94.29
2018-09-12T21:46:39.279Z,93.58
2018-09-12T21:49:07.878Z,94.02
2018-09-12T21:51:36.459Z,93.82
2018-09-12T21:54:05.026Z,93.82
2018-09-12T21:56:33.593Z,93.28
2018-09-12T21:59:02.174Z,92.99
2018-09-12T22:01:30.705Z,93.03
2018-09-12T22:03:59.264Z,93.51
2018-09-12T22:06:27.810Z,92.74
2018-09-12T22:08:56.421Z,92.53
2018-09-12T22:11:25.110Z,93.08
2018-09-12T22:13:53.644Z,93.15
2018-09-12T22:16:22.776Z,93.06
2018-09-12T22:18:51.330Z,92.95
2018-09-12T22:21:19.917Z,92.98
2018-09-12T22:23:48.474Z,93.00
2018-09-12T22:26:17.103Z,92.95
2018-09-12T22:28:45.672Z,92.92
2018-09-12T22:31:14.355Z,92.29
2018-09-12T22:33:42.897Z,92.66
2018-09-12T22:36:12.126Z,92.17
2018-09-12T22:38:40.806Z,92.68
2018-09-12T22:41:09.410Z,92.20
2018-09-12T22:43:38.060Z,92.37
2018-09-12T22:46:06.641Z,92.57
2018-09-12T22:48:35.363Z,92.22
2018-09-12T22:51:04.054Z,92.08
2018-09-12T22:53:32.635Z,92.63
2018-09-12T22:56:01.989Z,92.32
2018-09-12T22:58:30.783Z,92.53
2018-09-12T23:00:59.363Z,92.64
2018-09-12T23:03:28.006Z,92.37
2018-09-12T23:05:56.539Z,92.10
2018-09-12T23:08:25.262Z,92.38
2018-09-12T23:10:53.830Z,92.85
2018-09-12T23:13:22.390Z,92.88
2018-09-12T23:15:50.940Z,92.98
2018-09-12T23:18:19.687Z,92.81
2018-09-12T23:20:48.293Z,93.07
2018-09-12T23:23:16.858Z,92.70
2018-09-12T23:25:45.466Z,92.46
2018-09-12T23:28:14.043Z,92.62
2018-09-12T23:30:42.575Z,92.49
2018-09-12T23:33:11.136Z,92.24
2018-09-12T23:35:39.724Z,92.29
2018-09-12T23:38:08.261Z,92.66
2018-09-12T23:40:36.867Z,92.30
2018-09-12T23:43:05.502Z,92.35
2018-09-12T23:45:34.107Z,92.08
2018-09-12T23:48:02.659Z,92.15
2018-09-12T23:50:31.290Z,92.72
2018-09-12T23:52:59.946Z,92.46
2018-09-12T23:55:28.516Z,91.90
2018-09-12T23:57:57.120Z,91.91
